sensor_id;sensor_type;location;lat;lon;timestamp;pressure;altitude;pressure_sealevel;temperature;humidity
72548;BME280;60570;50.848;6.776;2023-10-09T00:00:24;101026.97;;;18.28;68.47
72548;BME280;60570;50.848;6.776;2023-10-09T00:01:51;101027.31;;;18.27;68.59
72548;BME280;60570;50.848;6.776;2023-10-09T00:02:53;101026.53;;;18.26;68.51
72548;BME280;60570;50.848;6.776;2023-10-09T00:03:54;101037.78;;;18.26;68.65
72548;BME280;60570;50.848;6.776;2023-10-09T00:04:55;101034.16;;;18.26;68.62
72548;BME280;60570;50.848;6.776;2023-10-09T00:05:57;101033.34;;;18.25;68.66
72548;BME280;60570;50.848;6.776;2023-10-09T00:06:58;101036.97;;;18.26;68.57
72548;BME280;60570;50.848;6.776;2023-10-09T00:08:00;101033.34;;;18.25;68.62
72548;BME280;60570;50.848;6.776;2023-10-09T00:09:03;101022.91;;;18.26;68.55
72548;BME280;60570;50.848;6.776;2023-10-09T00:10:17;101029.69;;;18.25;68.71
72548;BME280;60570;50.848;6.776;2023-10-09T00:11:21;101028.09;;;18.24;68.55
72548;BME280;60570;50.848;6.776;2023-10-09T00:12:26;101026.09;;;18.24;68.65
72548;BME280;60570;50.848;6.776;2023-10-09T00:13:27;101030.06;;;18.23;68.71
72548;BME280;60570;50.848;6.776;2023-10-09T00:14:30;101031.72;;;18.24;68.49
72548;BME280;60570;50.848;6.776;2023-10-09T00:15:35;101034.88;;;18.23;68.69
72548;BME280;60570;50.848;6.776;2023-10-09T00:16:37;101030.06;;;18.23;68.56
72548;BME280;60570;50.848;6.776;2023-10-09T00:17:44;101020.03;;;18.22;68.56
72548;BME280;60570;50.848;6.776;2023-10-09T00:18:48;101022.84;;;18.22;68.51
72548;BME280;60570;50.848;6.776;2023-10-09T00:19:49;101020.81;;;18.23;68.31
72548;BME280;60570;50.848;6.776;2023-10-09T00:20:51;101029.25;;;18.23;68.44
72548;BME280;60570;50.848;6.776;2023-10-09T00:21:55;101024.84;;;18.22;68.53
72548;BME280;60570;50.848;6.776;2023-10-09T00:22:58;101026.81;;;18.21;68.70
72548;BME280;60570;50.848;6.776;2023-10-09T00:23:59;101026.81;;;18.21;68.61
72548;BME280;60570;50.848;6.776;2023-10-09T00:25:06;101025.22;;;18.20;68.67
72548;BME280;60570;50.848;6.776;2023-10-09T00:26:11;101027.22;;;18.20;68.66
72548;BME280;60570;50.848;6.776;2023-10-09T00:27:16;101025.22;;;18.20;68.63
72548;BME280;60570;50.848;6.776;2023-10-09T00:28:19;101035.66;;;18.20;68.33
72548;BME280;60570;50.848;6.776;2023-10-09T00:29:22;101026.38;;;18.19;68.67
72548;BME280;60570;50.848;6.776;2023-10-09T00:30:24;101028.38;;;18.19;68.67
72548;BME280;60570;50.848;6.776;2023-10-09T00:31:30;101024.78;;;18.18;68.64
72548;BME280;60570;50.848;6.776;2023-10-09T00:32:34;101025.56;;;18.19;68.65
72548;BME280;60570;50.848;6.776;2023-10-09T00:33:37;101023.13;;;18.17;68.51
72548;BME280;60570;50.848;6.776;2023-10-09T00:34:39;101019.16;;;18.18;68.65
72548;BME280;60570;50.848;6.776;2023-10-09T00:35:41;101021.53;;;18.16;68.40
72548;BME280;60570;50.848;6.776;2023-10-09T00:36:54;101021.16;;;18.18;68.79
72548;BME280;60570;50.848;6.776;2023-10-09T00:37:58;101026.31;;;18.16;68.65
72548;BME280;60570;50.848;6.776;2023-10-09T00:39:06;101021.53;;;18.16;68.69
72548;BME280;60570;50.848;6.776;2023-10-09T00:40:19;101008.63;;;18.15;68.66
72548;BME280;60570;50.848;6.776;2023-10-09T00:41:22;101017.44;;;18.14;68.55
72548;BME280;60570;50.848;6.776;2023-10-09T00:42:25;101014.63;;;18.14;68.61
72548;BME280;60570;50.848;6.776;2023-10-09T00:43:28;101003.38;;;18.14;68.51
72548;BME280;60570;50.848;6.776;2023-10-09T00:44:29;101007.03;;;18.14;68.58
72548;BME280;60570;50.848;6.776;2023-10-09T00:45:38;101008.19;;;18.13;68.68
72548;BME280;60570;50.848;6.776;2023-10-09T00:46:40;101001.78;;;18.13;68.59
72548;BME280;60570;50.848;6.776;2023-10-09T00:47:43;101012.22;;;18.12;68.56
72548;BME280;60570;50.848;6.776;2023-10-09T00:48:44;100998.16;;;18.12;68.56
72548;BME280;60570;50.848;6.776;2023-10-09T00:49:52;100998.16;;;18.12;68.50
72548;BME280;60570;50.848;6.776;2023-10-09T00:50:59;100993.69;;;18.11;68.64
72548;BME280;60570;50.848;6.776;2023-10-09T00:52:00;100997.31;;;18.12;68.62
72548;BME280;60570;50.848;6.776;2023-10-09T00:53:02;100992.09;;;18.10;68.57
72548;BME280;60570;50.848;6.776;2023-10-09T00:54:09;100992.09;;;18.10;68.42
72548;BME280;60570;50.848;6.776;2023-10-09T00:55:14;100994.06;;;18.10;68.69
72548;BME280;60570;50.848;6.776;2023-10-09T00:56:21;100996.06;;;18.09;68.52
72548;BME280;60570;50.848;6.776;2023-10-09T00:57:29;100991.25;;;18.10;68.48
72548;BME280;60570;50.848;6.776;2023-10-09T00:58:32;100996.44;;;18.08;68.53
72548;BME280;60570;50.848;6.776;2023-10-09T00:59:36;100991.66;;;18.08;68.68
72548;BME280;60570;50.848;6.776;2023-10-09T01:00:39;100996.44;;;18.08;68.69
72548;BME280;60570;50.848;6.776;2023-10-09T01:01:47;100992.81;;;18.07;68.66
72548;BME280;60570;50.848;6.776;2023-10-09T01:02:56;100989.22;;;18.07;68.54
72548;BME280;60570;50.848;6.776;2023-10-09T01:04:10;100991.19;;;18.06;68.76
72548;BME280;60570;50.848;6.776;2023-10-09T01:05:16;100994.00;;;18.06;68.70
72548;BME280;60570;50.848;6.776;2023-10-09T01:06:20;100987.56;;;18.06;68.61
72548;BME280;60570;50.848;6.776;2023-10-09T01:07:21;100986.75;;;18.05;68.74
72548;BME280;60570;50.848;6.776;2023-10-09T01:08:26;100983.16;;;18.05;68.71
72548;BME280;60570;50.848;6.776;2023-10-09T01:09:30;100982.31;;;18.04;68.57
72548;BME280;60570;50.848;6.776;2023-10-09T01:10:43;100995.56;;;18.04;68.72
72548;BME280;60570;50.848;6.776;2023-10-09T01:11:50;100983.94;;;18.05;68.51
72548;BME280;60570;50.848;6.776;2023-10-09T01:13:04;100986.31;;;18.03;68.83
72548;BME280;60570;50.848;6.776;2023-10-09T01:14:05;100986.31;;;18.03;68.79
72548;BME280;60570;50.848;6.776;2023-10-09T01:15:13;100981.88;;;18.02;68.82
72548;BME280;60570;50.848;6.776;2023-10-09T01:16:35;100976.25;;;18.02;68.53
72548;BME280;60570;50.848;6.776;2023-10-09T01:17:36;100977.09;;;18.03;68.47
72548;BME280;60570;50.848;6.776;2023-10-09T01:18:38;100967.00;;;18.02;68.56
72548;BME280;60570;50.848;6.776;2023-10-09T01:19:41;100969.81;;;18.02;68.61
72548;BME280;60570;50.848;6.776;2023-10-09T01:20:44;100975.81;;;18.00;68.73
72548;BME280;60570;50.848;6.776;2023-10-09T01:21:46;100972.63;;;18.02;68.47
72548;BME280;60570;50.848;6.776;2023-10-09T01:22:47;100968.22;;;18.01;68.71
72548;BME280;60570;50.848;6.776;2023-10-09T01:23:52;100969.38;;;18.00;68.60
72548;BME280;60570;50.848;6.776;2023-10-09T01:25:03;100970.19;;;18.00;68.65
72548;BME280;60570;50.848;6.776;2023-10-09T01:26:06;100967.38;;;18.00;68.46
72548;BME280;60570;50.848;6.776;2023-10-09T01:27:06;100971.84;;;18.01;68.64
72548;BME280;60570;50.848;6.776;2023-10-09T01:28:15;100973.84;;;18.01;68.62
72548;BME280;60570;50.848;6.776;2023-10-09T01:29:16;100967.38;;;18.00;68.71
72548;BME280;60570;50.848;6.776;2023-10-09T01:30:17;100970.19;;;18.00;68.40
72548;BME280;60570;50.848;6.776;2023-10-09T01:31:20;100973.84;;;18.01;68.46
72548;BME280;60570;50.848;6.776;2023-10-09T01:32:21;100973.00;;;18.00;68.54
72548;BME280;60570;50.848;6.776;2023-10-09T01:33:26;100972.19;;;18.00;68.49
72548;BME280;60570;50.848;6.776;2023-10-09T01:34:28;100976.66;;;18.01;68.66
72548;BME280;60570;50.848;6.776;2023-10-09T01:35:39;100969.38;;;18.00;68.51
72548;BME280;60570;50.848;6.776;2023-10-09T01:36:47;100966.56;;;18.00;68.74
72548;BME280;60570;50.848;6.776;2023-10-09T01:37:49;100962.16;;;17.99;68.62
72548;BME280;60570;50.848;6.776;2023-10-09T01:38:52;100960.94;;;18.00;68.62
72548;BME280;60570;50.848;6.776;2023-10-09T01:39:55;100956.53;;;17.99;68.46
72548;BME280;60570;50.848;6.776;2023-10-09T01:40:59;100948.09;;;17.99;68.45
72548;BME280;60570;50.848;6.776;2023-10-09T01:42:08;100952.91;;;17.98;68.36
72548;BME280;60570;50.848;6.776;2023-10-09T01:43:09;100952.06;;;17.98;68.47
72548;BME280;60570;50.848;6.776;2023-10-09T01:44:11;100948.47;;;17.97;68.55
72548;BME280;60570;50.848;6.776;2023-10-09T01:45:12;100947.28;;;17.98;68.61
72548;BME280;60570;50.848;6.776;2023-10-09T01:46:26;100939.22;;;17.97;68.39
72548;BME280;60570;50.848;6.776;2023-10-09T01:47:27;100944.03;;;17.96;68.44
72548;BME280;60570;50.848;6.776;2023-10-09T01:48:31;100941.22;;;17.96;68.41
72548;BME280;60570;50.848;6.776;2023-10-09T01:49:38;100936.78;;;17.95;68.61
72548;BME280;60570;50.848;6.776;2023-10-09T01:50:41;100941.22;;;17.96;68.66
72548;BME280;60570;50.848;6.776;2023-10-09T01:51:42;100945.22;;;17.95;68.57
72548;BME280;60570;50.848;6.776;2023-10-09T01:52:43;100938.41;;;17.96;68.62
72548;BME280;60570;50.848;6.776;2023-10-09T01:53:44;100936.78;;;17.95;68.60
72548;BME280;60570;50.848;6.776;2023-10-09T01:54:50;100929.53;;;17.94;68.51
72548;BME280;60570;50.848;6.776;2023-10-09T01:55:51;100935.16;;;17.94;68.60
72548;BME280;60570;50.848;6.776;2023-10-09T01:56:55;100928.69;;;17.93;68.43
72548;BME280;60570;50.848;6.776;2023-10-09T01:57:56;100931.50;;;17.93;68.48
72548;BME280;60570;50.848;6.776;2023-10-09T01:58:58;100927.09;;;17.92;68.66
72548;BME280;60570;50.848;6.776;2023-10-09T02:00:06;100933.53;;;17.93;68.41
72548;BME280;60570;50.848;6.776;2023-10-09T02:01:08;100931.91;;;17.92;68.46
72548;BME280;60570;50.848;6.776;2023-10-09T02:02:10;100935.53;;;17.92;68.52
72548;BME280;60570;50.848;6.776;2023-10-09T02:03:25;100933.88;;;17.91;68.51
72548;BME280;60570;50.848;6.776;2023-10-09T02:04:29;100945.97;;;17.92;68.70
72548;BME280;60570;50.848;6.776;2023-10-09T02:05:30;100943.13;;;17.92;68.54
72548;BME280;60570;50.848;6.776;2023-10-09T02:06:33;100950.75;;;17.91;68.70
72548;BME280;60570;50.848;6.776;2023-10-09T02:07:38;100947.94;;;17.91;68.45
72548;BME280;60570;50.848;6.776;2023-10-09T02:08:40;100951.97;;;17.90;68.47
72548;BME280;60570;50.848;6.776;2023-10-09T02:09:50;100947.50;;;17.89;68.46
72548;BME280;60570;50.848;6.776;2023-10-09T02:10:51;100943.53;;;17.90;68.55
72548;BME280;60570;50.848;6.776;2023-10-09T02:11:56;100946.34;;;17.90;68.72
72548;BME280;60570;50.848;6.776;2023-10-09T02:12:57;100941.53;;;17.91;68.44
72548;BME280;60570;50.848;6.776;2023-10-09T02:13:59;100944.34;;;17.91;68.54
72548;BME280;60570;50.848;6.776;2023-10-09T02:15:01;100942.69;;;17.90;68.54
72548;BME280;60570;50.848;6.776;2023-10-09T02:16:09;100946.72;;;17.89;68.74
72548;BME280;60570;50.848;6.776;2023-10-09T02:17:16;100940.72;;;17.90;68.67
72548;BME280;60570;50.848;6.776;2023-10-09T02:18:20;100945.50;;;17.90;68.72
72548;BME280;60570;50.848;6.776;2023-10-09T02:19:27;100943.09;;;17.88;68.41
72548;BME280;60570;50.848;6.776;2023-10-09T02:20:30;100947.50;;;17.89;68.45
72548;BME280;60570;50.848;6.776;2023-10-09T02:21:37;100947.50;;;17.89;68.48
72548;BME280;60570;50.848;6.776;2023-10-09T02:22:40;100938.28;;;17.89;68.71
72548;BME280;60570;50.848;6.776;2023-10-09T02:23:42;100948.72;;;17.88;68.34
72548;BME280;60570;50.848;6.776;2023-10-09T02:24:47;100940.28;;;17.88;68.65
72548;BME280;60570;50.848;6.776;2023-10-09T02:25:54;100939.84;;;17.86;68.66
72548;BME280;60570;50.848;6.776;2023-10-09T02:26:57;100947.09;;;17.87;68.61
72548;BME280;60570;50.848;6.776;2023-10-09T02:28:07;100947.88;;;17.88;68.48
72548;BME280;60570;50.848;6.776;2023-10-09T02:29:07;100949.09;;;17.87;68.60
72548;BME280;60570;50.848;6.776;2023-10-09T02:30:15;100951.06;;;17.86;68.45
72548;BME280;60570;50.848;6.776;2023-10-09T02:31:16;100947.88;;;17.88;68.68
72548;BME280;60570;50.848;6.776;2023-10-09T02:32:19;100948.25;;;17.86;68.45
72548;BME280;60570;50.848;6.776;2023-10-09T02:33:25;100947.44;;;17.86;68.72
72548;BME280;60570;50.848;6.776;2023-10-09T02:34:28;100949.47;;;17.85;68.64
72548;BME280;60570;50.848;6.776;2023-10-09T02:35:30;100951.91;;;17.87;68.56
72548;BME280;60570;50.848;6.776;2023-10-09T02:36:38;100952.28;;;17.85;68.59
72548;BME280;60570;50.848;6.776;2023-10-09T02:37:49;100948.66;;;17.85;68.53
72548;BME280;60570;50.848;6.776;2023-10-09T02:38:50;100958.25;;;17.84;68.63
72548;BME280;60570;50.848;6.776;2023-10-09T02:39:53;100948.66;;;17.85;68.53
72548;BME280;60570;50.848;6.776;2023-10-09T02:40:58;100957.09;;;17.85;68.72
72548;BME280;60570;50.848;6.776;2023-10-09T02:42:18;100950.63;;;17.84;68.62
72548;BME280;60570;50.848;6.776;2023-10-09T02:43:25;100952.63;;;17.84;68.65
72548;BME280;60570;50.848;6.776;2023-10-09T02:44:27;100955.44;;;17.84;68.45
72548;BME280;60570;50.848;6.776;2023-10-09T02:45:31;100945.00;;;17.84;68.80
72548;BME280;60570;50.848;6.776;2023-10-09T02:46:37;100947.00;;;17.84;68.51
72548;BME280;60570;50.848;6.776;2023-10-09T02:47:40;100946.56;;;17.82;68.40
72548;BME280;60570;50.848;6.776;2023-10-09T02:48:40;100939.78;;;17.83;68.50
72548;BME280;60570;50.848;6.776;2023-10-09T02:49:45;100936.97;;;17.83;68.51
72548;BME280;60570;50.848;6.776;2023-10-09T02:50:48;100934.53;;;17.81;68.42
72548;BME280;60570;50.848;6.776;2023-10-09T02:51:50;100934.16;;;17.83;68.44
72548;BME280;60570;50.848;6.776;2023-10-09T02:52:54;100942.97;;;17.81;68.46
72548;BME280;60570;50.848;6.776;2023-10-09T02:54:00;100931.72;;;17.81;68.66
72548;BME280;60570;50.848;6.776;2023-10-09T02:55:18;100932.06;;;17.80;68.73
72548;BME280;60570;50.848;6.776;2023-10-09T02:56:25;100939.34;;;17.81;68.86
72548;BME280;60570;50.848;6.776;2023-10-09T02:57:37;100941.31;;;17.80;68.52
72548;BME280;60570;50.848;6.776;2023-10-09T02:58:37;100938.50;;;17.80;68.55
72548;BME280;60570;50.848;6.776;2023-10-09T02:59:40;100937.34;;;17.81;68.81
72548;BME280;60570;50.848;6.776;2023-10-09T03:00:45;100941.31;;;17.80;68.57
72548;BME280;60570;50.848;6.776;2023-10-09T03:01:47;100938.50;;;17.80;68.56
72548;BME280;60570;50.848;6.776;2023-10-09T03:02:48;100940.50;;;17.80;68.66
72548;BME280;60570;50.848;6.776;2023-10-09T03:03:51;100936.09;;;17.79;68.63
72548;BME280;60570;50.848;6.776;2023-10-09T03:04:51;100943.31;;;17.80;68.67
72548;BME280;60570;50.848;6.776;2023-10-09T03:05:55;100932.06;;;17.80;68.67
72548;BME280;60570;50.848;6.776;2023-10-09T03:06:56;100930.47;;;17.79;68.61
72548;BME280;60570;50.848;6.776;2023-10-09T03:07:57;100935.25;;;17.78;68.70
72548;BME280;60570;50.848;6.776;2023-10-09T03:08:59;100938.91;;;17.79;68.53
72548;BME280;60570;50.848;6.776;2023-10-09T03:10:00;100936.09;;;17.79;68.66
72548;BME280;60570;50.848;6.776;2023-10-09T03:11:01;100931.63;;;17.78;68.55
72548;BME280;60570;50.848;6.776;2023-10-09T03:12:03;100935.25;;;17.78;68.68
72548;BME280;60570;50.848;6.776;2023-10-09T03:13:06;100928.81;;;17.78;68.67
72548;BME280;60570;50.848;6.776;2023-10-09T03:14:06;100933.66;;;17.77;68.63
72548;BME280;60570;50.848;6.776;2023-10-09T03:15:07;100937.25;;;17.78;68.65
72548;BME280;60570;50.848;6.776;2023-10-09T03:16:09;100930.84;;;17.77;68.56
72548;BME280;60570;50.848;6.776;2023-10-09T03:17:14;100934.44;;;17.78;68.65
72548;BME280;60570;50.848;6.776;2023-10-09T03:18:16;100930.84;;;17.77;68.61
72548;BME280;60570;50.848;6.776;2023-10-09T03:19:16;100931.19;;;17.76;68.56
72548;BME280;60570;50.848;6.776;2023-10-09T03:20:18;100937.25;;;17.78;68.46
72548;BME280;60570;50.848;6.776;2023-10-09T03:21:18;100932.84;;;17.77;68.64
72548;BME280;60570;50.848;6.776;2023-10-09T03:22:20;100934.81;;;17.76;68.64
72548;BME280;60570;50.848;6.776;2023-10-09T03:23:20;100930.03;;;17.77;68.60
72548;BME280;60570;50.848;6.776;2023-10-09T03:24:22;100932.84;;;17.77;68.56
72548;BME280;60570;50.848;6.776;2023-10-09T03:25:22;100932.84;;;17.77;68.58
72548;BME280;60570;50.848;6.776;2023-10-09T03:26:27;100933.66;;;17.77;68.44
72548;BME280;60570;50.848;6.776;2023-10-09T03:27:29;100931.19;;;17.76;68.53
72548;BME280;60570;50.848;6.776;2023-10-09T03:28:30;100932.00;;;17.76;68.75
72548;BME280;60570;50.848;6.776;2023-10-09T03:29:31;100931.56;;;17.74;68.74
72548;BME280;60570;50.848;6.776;2023-10-09T03:30:33;100937.19;;;17.74;68.59
72548;BME280;60570;50.848;6.776;2023-10-09T03:31:34;100937.19;;;17.74;68.49
72548;BME280;60570;50.848;6.776;2023-10-09T03:32:36;100934.38;;;17.74;68.71
72548;BME280;60570;50.848;6.776;2023-10-09T03:33:37;100931.56;;;17.74;68.69
72548;BME280;60570;50.848;6.776;2023-10-09T03:34:38;100937.56;;;17.73;68.64
72548;BME280;60570;50.848;6.776;2023-10-09T03:35:39;100940.00;;;17.74;68.75
72548;BME280;60570;50.848;6.776;2023-10-09T03:36:40;100936.38;;;17.74;68.59
72548;BME280;60570;50.848;6.776;2023-10-09T03:37:43;100935.22;;;17.75;68.66
72548;BME280;60570;50.848;6.776;2023-10-09T03:38:44;100930.75;;;17.74;68.70
72548;BME280;60570;50.848;6.776;2023-10-09T03:39:45;100927.94;;;17.74;68.73
72548;BME280;60570;50.848;6.776;2023-10-09T03:40:48;100935.59;;;17.73;68.78
72548;BME280;60570;50.848;6.776;2023-10-09T03:41:49;100931.94;;;17.73;68.80
72548;BME280;60570;50.848;6.776;2023-10-09T03:42:52;100925.50;;;17.72;68.67
72548;BME280;60570;50.848;6.776;2023-10-09T03:43:53;100919.09;;;17.72;68.71
72548;BME280;60570;50.848;6.776;2023-10-09T03:44:55;100921.91;;;17.72;68.76
72548;BME280;60570;50.848;6.776;2023-10-09T03:45:58;100923.91;;;17.71;68.52
72548;BME280;60570;50.848;6.776;2023-10-09T03:46:59;100928.69;;;17.71;68.66
72548;BME280;60570;50.848;6.776;2023-10-09T03:48:00;100927.53;;;17.72;68.86
72548;BME280;60570;50.848;6.776;2023-10-09T03:49:09;100925.91;;;17.71;68.78
72548;BME280;60570;50.848;6.776;2023-10-09T03:50:12;100925.06;;;17.70;68.80
72548;BME280;60570;50.848;6.776;2023-10-09T03:51:26;100927.09;;;17.70;68.71
72548;BME280;60570;50.848;6.776;2023-10-09T03:52:27;100921.47;;;17.70;68.67
72548;BME280;60570;50.848;6.776;2023-10-09T03:53:31;100926.72;;;17.71;68.70
72548;BME280;60570;50.848;6.776;2023-10-09T03:54:31;100920.66;;;17.69;68.63
72548;BME280;60570;50.848;6.776;2023-10-09T03:55:35;100920.66;;;17.69;68.65
72548;BME280;60570;50.848;6.776;2023-10-09T03:56:38;100920.66;;;17.69;68.72
72548;BME280;60570;50.848;6.776;2023-10-09T03:57:38;100929.91;;;17.70;68.81
72548;BME280;60570;50.848;6.776;2023-10-09T03:58:43;100925.47;;;17.69;68.60
72548;BME280;60570;50.848;6.776;2023-10-09T03:59:45;100926.28;;;17.69;68.71
72548;BME280;60570;50.848;6.776;2023-10-09T04:00:48;100942.31;;;17.69;68.66
72548;BME280;60570;50.848;6.776;2023-10-09T04:01:49;100939.50;;;17.69;68.72
72548;BME280;60570;50.848;6.776;2023-10-09T04:02:53;100933.06;;;17.68;68.65
72548;BME280;60570;50.848;6.776;2023-10-09T04:03:54;100943.50;;;17.68;68.71
72548;BME280;60570;50.848;6.776;2023-10-09T04:04:56;100933.06;;;17.68;68.63
72548;BME280;60570;50.848;6.776;2023-10-09T04:05:56;100937.91;;;17.68;68.66
72548;BME280;60570;50.848;6.776;2023-10-09T04:06:58;100937.91;;;17.68;68.96
72548;BME280;60570;50.848;6.776;2023-10-09T04:07:59;100937.06;;;17.67;68.79
72548;BME280;60570;50.848;6.776;2023-10-09T04:09:02;100929.47;;;17.68;68.80
72548;BME280;60570;50.848;6.776;2023-10-09T04:10:26;100929.09;;;17.69;68.50
72548;BME280;60570;50.848;6.776;2023-10-09T04:11:43;100937.91;;;17.68;68.82
72548;BME280;60570;50.848;6.776;2023-10-09T04:12:46;100929.47;;;17.68;68.84
72548;BME280;60570;50.848;6.776;2023-10-09T04:13:54;100923.03;;;17.67;68.79
72548;BME280;60570;50.848;6.776;2023-10-09T04:15:00;100914.97;;;17.66;68.77
72548;BME280;60570;50.848;6.776;2023-10-09T04:16:05;100922.19;;;17.67;68.58
72548;BME280;60570;50.848;6.776;2023-10-09T04:17:11;100926.22;;;17.66;68.94
72548;BME280;60570;50.848;6.776;2023-10-09T04:18:33;100926.22;;;17.66;68.71
72548;BME280;60570;50.848;6.776;2023-10-09T04:19:34;100916.13;;;17.65;68.92
72548;BME280;60570;50.848;6.776;2023-10-09T04:20:48;100924.56;;;17.65;68.95
72548;BME280;60570;50.848;6.776;2023-10-09T04:22:15;100912.50;;;17.64;68.92
72548;BME280;60570;50.848;6.776;2023-10-09T04:23:26;100912.50;;;17.64;68.82
72548;BME280;60570;50.848;6.776;2023-10-09T04:24:35;100917.34;;;17.64;68.64
72548;BME280;60570;50.848;6.776;2023-10-09T04:25:41;100921.75;;;17.65;68.69
72548;BME280;60570;50.848;6.776;2023-10-09T04:26:42;100918.13;;;17.64;68.77
72548;BME280;60570;50.848;6.776;2023-10-09T04:27:44;100916.53;;;17.63;68.87
72548;BME280;60570;50.848;6.776;2023-10-09T04:28:47;100912.50;;;17.64;68.95
72548;BME280;60570;50.848;6.776;2023-10-09T04:29:53;100914.53;;;17.64;68.62
72548;BME280;60570;50.848;6.776;2023-10-09T04:30:54;100915.69;;;17.63;68.68
72548;BME280;60570;50.848;6.776;2023-10-09T04:31:56;100912.06;;;17.62;68.61
72548;BME280;60570;50.848;6.776;2023-10-09T04:33:00;100918.50;;;17.63;69.03
72548;BME280;60570;50.848;6.776;2023-10-09T04:34:11;100908.47;;;17.62;68.90
72548;BME280;60570;50.848;6.776;2023-10-09T04:35:29;100914.09;;;17.62;68.82
72548;BME280;60570;50.848;6.776;2023-10-09T04:36:31;100911.28;;;17.62;68.83
72548;BME280;60570;50.848;6.776;2023-10-09T04:37:46;100914.09;;;17.62;68.89
72548;BME280;60570;50.848;6.776;2023-10-09T04:38:53;100914.09;;;17.62;69.07
72548;BME280;60570;50.848;6.776;2023-10-09T04:39:55;100906.84;;;17.61;68.97
72548;BME280;60570;50.848;6.776;2023-10-09T04:41:12;100908.47;;;17.62;68.70
72548;BME280;60570;50.848;6.776;2023-10-09T04:42:27;100913.28;;;17.61;69.01
72548;BME280;60570;50.848;6.776;2023-10-09T04:43:36;100912.44;;;17.61;68.75
72548;BME280;60570;50.848;6.776;2023-10-09T04:44:44;100914.09;;;17.62;68.89
72548;BME280;60570;50.848;6.776;2023-10-09T04:46:01;100906.00;;;17.60;68.81
72548;BME280;60570;50.848;6.776;2023-10-09T04:47:13;100908.81;;;17.60;68.79
72548;BME280;60570;50.848;6.776;2023-10-09T04:48:20;100902.41;;;17.60;68.75
72548;BME280;60570;50.848;6.776;2023-10-09T04:49:33;100900.38;;;17.60;68.92
72548;BME280;60570;50.848;6.776;2023-10-09T04:50:49;100905.22;;;17.60;69.01
72548;BME280;60570;50.848;6.776;2023-10-09T04:52:20;100905.22;;;17.60;68.77
72548;BME280;60570;50.848;6.776;2023-10-09T04:53:51;100905.22;;;17.60;68.96
72548;BME280;60570;50.848;6.776;2023-10-09T04:55:12;100897.97;;;17.59;68.78
72548;BME280;60570;50.848;6.776;2023-10-09T04:56:19;100899.59;;;17.60;68.83
72548;BME280;60570;50.848;6.776;2023-10-09T04:57:24;100898.78;;;17.59;68.98
72548;BME280;60570;50.848;6.776;2023-10-09T04:58:25;100893.16;;;17.59;68.71
72548;BME280;60570;50.848;6.776;2023-10-09T04:59:26;100888.75;;;17.58;68.86
72548;BME280;60570;50.848;6.776;2023-10-09T05:00:28;100891.56;;;17.58;68.92
72548;BME280;60570;50.848;6.776;2023-10-09T05:01:54;100892.34;;;17.59;68.86
72548;BME280;60570;50.848;6.776;2023-10-09T05:02:59;100903.59;;;17.59;69.05
72548;BME280;60570;50.848;6.776;2023-10-09T05:04:07;100897.19;;;17.58;69.02
72548;BME280;60570;50.848;6.776;2023-10-09T05:05:28;100903.13;;;17.57;68.85
72548;BME280;60570;50.848;6.776;2023-10-09T05:06:44;100901.59;;;17.59;69.08
72548;BME280;60570;50.848;6.776;2023-10-09T05:07:55;100913.22;;;17.58;68.87
72548;BME280;60570;50.848;6.776;2023-10-09T05:08:59;100909.19;;;17.59;68.86
72548;BME280;60570;50.848;6.776;2023-10-09T05:10:08;100911.22;;;17.58;68.99
72548;BME280;60570;50.848;6.776;2023-10-09T05:11:15;100909.59;;;17.57;68.96
72548;BME280;60570;50.848;6.776;2023-10-09T05:12:34;100905.94;;;17.57;69.00
72548;BME280;60570;50.848;6.776;2023-10-09T05:13:41;100900.72;;;17.55;69.03
72548;BME280;60570;50.848;6.776;2023-10-09T05:14:57;100912.41;;;17.57;69.07
72548;BME280;60570;50.848;6.776;2023-10-09T05:16:09;100903.13;;;17.57;68.86
72548;BME280;60570;50.848;6.776;2023-10-09T05:17:17;100903.97;;;17.57;68.81
72548;BME280;60570;50.848;6.776;2023-10-09T05:18:17;100895.91;;;17.56;68.99
72548;BME280;60570;50.848;6.776;2023-10-09T05:19:21;100902.34;;;17.56;68.80
72548;BME280;60570;50.848;6.776;2023-10-09T05:20:45;100899.53;;;17.56;68.95
72548;BME280;60570;50.848;6.776;2023-10-09T05:21:57;100900.72;;;17.55;69.08
72548;BME280;60570;50.848;6.776;2023-10-09T05:23:05;100906.34;;;17.55;68.93
72548;BME280;60570;50.848;6.776;2023-10-09T05:24:23;100903.53;;;17.55;69.08
72548;BME280;60570;50.848;6.776;2023-10-09T05:25:26;100905.94;;;17.57;69.15
72548;BME280;60570;50.848;6.776;2023-10-09T05:26:46;100910.78;;;17.56;68.78
72548;BME280;60570;50.848;6.776;2023-10-09T05:27:52;100900.72;;;17.55;69.06
72548;BME280;60570;50.848;6.776;2023-10-09T05:28:54;100896.72;;;17.56;68.96
72548;BME280;60570;50.848;6.776;2023-10-09T05:29:58;100898.72;;;17.56;69.01
72548;BME280;60570;50.848;6.776;2023-10-09T05:31:13;100897.09;;;17.55;68.85
72548;BME280;60570;50.848;6.776;2023-10-09T05:32:35;100893.47;;;17.54;68.99
72548;BME280;60570;50.848;6.776;2023-10-09T05:33:48;100886.22;;;17.53;69.12
72548;BME280;60570;50.848;6.776;2023-10-09T05:34:53;100887.88;;;17.54;69.03
72548;BME280;60570;50.848;6.776;2023-10-09T05:36:07;100888.66;;;17.55;69.08
72548;BME280;60570;50.848;6.776;2023-10-09T05:37:34;100894.28;;;17.55;69.18
72548;BME280;60570;50.848;6.776;2023-10-09T05:38:43;100887.03;;;17.54;69.06
72548;BME280;60570;50.848;6.776;2023-10-09T05:39:59;100885.84;;;17.55;69.10
72548;BME280;60570;50.848;6.776;2023-10-09T05:41:22;100887.03;;;17.54;68.87
72548;BME280;60570;50.848;6.776;2023-10-09T05:42:46;100892.66;;;17.54;69.10
72548;BME280;60570;50.848;6.776;2023-10-09T05:43:57;100895.47;;;17.54;69.05